sensor_id;sensor_type;location;lat;lon;timestamp;pressure;altitude;pressure_sealevel;temperature;humidity
68758;BME280;55747;51.998;4.466;2022-10-26T00:01:19;56616.38;;;-144.48;89.43
68758;BME280;55747;51.998;4.466;2022-10-26T00:03:45;56606.03;;;-144.48;89.36
68758;BME280;55747;51.998;4.466;2022-10-26T00:06:16;56622.56;;;-144.48;89.44
68758;BME280;55747;51.998;4.466;2022-10-26T00:08:42;56620.50;;;-144.48;89.52
68758;BME280;55747;51.998;4.466;2022-10-26T00:11:08;56624.63;;;-144.48;89.53
68758;BME280;55747;51.998;4.466;2022-10-26T00:13:35;56601.91;;;-144.48;89.60
68758;BME280;55747;51.998;4.466;2022-10-26T00:16:01;56639.13;;;-144.48;89.68
68758;BME280;55747;51.998;4.466;2022-10-26T00:18:26;56647.38;;;-144.48;89.96
68758;BME280;55747;51.998;4.466;2022-10-26T00:20:51;56601.91;;;-144.48;89.95
68758;BME280;55747;51.998;4.466;2022-10-26T00:23:17;56612.22;;;-144.48;89.90
68758;BME280;55747;51.998;4.466;2022-10-26T00:25:43;56630.84;;;-144.48;89.84
68758;BME280;55747;51.998;4.466;2022-10-26T00:28:08;56616.38;;;-144.48;89.95
68758;BME280;55747;51.998;4.466;2022-10-26T00:30:37;56647.38;;;-144.48;89.82
68758;BME280;55747;51.998;4.466;2022-10-26T00:33:03;56614.31;;;-144.48;89.60
68758;BME280;55747;51.998;4.466;2022-10-26T00:35:28;56634.97;;;-144.48;89.60
68758;BME280;55747;51.998;4.466;2022-10-26T00:37:54;56634.97;;;-144.48;89.60
68758;BME280;55747;51.998;4.466;2022-10-26T00:40:20;56628.78;;;-144.48;89.72
68758;BME280;55747;51.998;4.466;2022-10-26T00:42:46;56616.38;;;-144.48;89.65
68758;BME280;55747;51.998;4.466;2022-10-26T00:45:22;56651.50;;;-144.48;89.59
68758;BME280;55747;51.998;4.466;2022-10-26T00:47:50;56630.84;;;-144.48;89.37
68758;BME280;55747;51.998;4.466;2022-10-26T00:50:20;56622.56;;;-144.48;89.35
68758;BME280;55747;51.998;4.466;2022-10-26T00:52:49;56641.19;;;-144.48;89.35
68758;BME280;55747;51.998;4.466;2022-10-26T00:55:17;56616.38;;;-144.48;89.47
68758;BME280;55747;51.998;4.466;2022-10-26T00:57:46;56632.91;;;-144.48;89.68
68758;BME280;55747;51.998;4.466;2022-10-26T01:00:12;56612.22;;;-144.48;89.66
68758;BME280;55747;51.998;4.466;2022-10-26T01:02:37;56647.38;;;-144.48;89.50
68758;BME280;55747;51.998;4.466;2022-10-26T01:05:03;56628.78;;;-144.48;89.31
68758;BME280;55747;51.998;4.466;2022-10-26T01:07:30;56608.09;;;-144.48;89.28
68758;BME280;55747;51.998;4.466;2022-10-26T01:09:56;56649.44;;;-144.48;89.04
68758;BME280;55747;51.998;4.466;2022-10-26T01:12:21;56653.59;;;-144.48;88.47
68758;BME280;55747;51.998;4.466;2022-10-26T01:14:47;56624.63;;;-144.48;88.61
68758;BME280;55747;51.998;4.466;2022-10-26T01:17:32;56616.38;;;-144.48;88.40
68758;BME280;55747;51.998;4.466;2022-10-26T01:22:53;56597.75;;;-144.48;88.31
68758;BME280;55747;51.998;4.466;2022-10-26T01:28:12;56610.16;;;-144.48;88.65
68758;BME280;55747;51.998;4.466;2022-10-26T01:30:45;56630.84;;;-144.48;88.71
68758;BME280;55747;51.998;4.466;2022-10-26T01:36:14;56653.59;;;-144.48;88.56
68758;BME280;55747;51.998;4.466;2022-10-26T01:41:23;56628.78;;;-144.48;89.20
68758;BME280;55747;51.998;4.466;2022-10-26T01:43:56;56659.78;;;-144.48;89.76
68758;BME280;55747;51.998;4.466;2022-10-26T01:46:25;56647.38;;;-144.48;90.12
68758;BME280;55747;51.998;4.466;2022-10-26T01:48:56;56595.69;;;-144.48;90.62
68758;BME280;55747;51.998;4.466;2022-10-26T01:51:24;56610.16;;;-144.48;90.58
68758;BME280;55747;51.998;4.466;2022-10-26T01:53:50;56589.50;;;-144.48;90.27
68758;BME280;55747;51.998;4.466;2022-10-26T01:56:24;56626.72;;;-144.48;89.90
68758;BME280;55747;51.998;4.466;2022-10-26T02:12:51;56628.78;;;-144.48;90.11
68758;BME280;55747;51.998;4.466;2022-10-26T02:15:32;56608.09;;;-144.48;90.54
68758;BME280;55747;51.998;4.466;2022-10-26T02:18:08;56649.44;;;-144.48;91.07
68758;BME280;55747;51.998;4.466;2022-10-26T02:20:45;56610.16;;;-144.48;91.62
68758;BME280;55747;51.998;4.466;2022-10-26T02:23:14;56630.84;;;-144.48;91.48
68758;BME280;55747;51.998;4.466;2022-10-26T02:25:44;56628.78;;;-144.48;91.71
68758;BME280;55747;51.998;4.466;2022-10-26T02:28:15;56618.44;;;-144.48;91.85
68758;BME280;55747;51.998;4.466;2022-10-26T02:30:43;56690.81;;;-144.48;91.93
68758;BME280;55747;51.998;4.466;2022-10-26T02:33:12;56612.22;;;-144.48;91.98
68758;BME280;55747;51.998;4.466;2022-10-26T02:35:40;56641.19;;;-144.48;92.05
68758;BME280;55747;51.998;4.466;2022-10-26T02:38:09;56632.91;;;-144.48;92.09
68758;BME280;55747;51.998;4.466;2022-10-26T02:40:36;56595.69;;;-144.48;92.07
68758;BME280;55747;51.998;4.466;2022-10-26T02:43:05;56661.84;;;-144.48;92.17
68758;BME280;55747;51.998;4.466;2022-10-26T02:45:38;56626.72;;;-144.48;92.03
68758;BME280;55747;51.998;4.466;2022-10-26T02:48:07;56626.72;;;-144.48;92.12
68758;BME280;55747;51.998;4.466;2022-10-26T02:50:50;56608.09;;;-144.48;92.25
68758;BME280;55747;51.998;4.466;2022-10-26T02:53:26;56643.25;;;-144.48;92.36
68758;BME280;55747;51.998;4.466;2022-10-26T02:55:54;56624.63;;;-144.48;92.05
68758;BME280;55747;51.998;4.466;2022-10-26T02:58:28;56651.50;;;-144.48;92.11
68758;BME280;55747;51.998;4.466;2022-10-26T03:00:55;56637.03;;;-144.48;91.69
68758;BME280;55747;51.998;4.466;2022-10-26T03:03:21;56620.50;;;-144.48;91.38
68758;BME280;55747;51.998;4.466;2022-10-26T03:05:47;56634.97;;;-144.48;90.93
68758;BME280;55747;51.998;4.466;2022-10-26T03:08:12;56672.19;;;-144.48;90.70
68758;BME280;55747;51.998;4.466;2022-10-26T03:10:43;56649.44;;;-144.48;90.30
68758;BME280;55747;51.998;4.466;2022-10-26T03:13:10;56624.63;;;-144.48;90.19
68758;BME280;55747;51.998;4.466;2022-10-26T03:15:36;56620.50;;;-144.48;90.13
68758;BME280;55747;51.998;4.466;2022-10-26T03:18:01;56628.78;;;-144.48;90.41
68758;BME280;55747;51.998;4.466;2022-10-26T03:20:27;56608.09;;;-144.48;90.51
68758;BME280;55747;51.998;4.466;2022-10-26T03:22:52;56610.16;;;-144.48;90.46
68758;BME280;55747;51.998;4.466;2022-10-26T03:25:18;56628.78;;;-144.48;90.41
68758;BME280;55747;51.998;4.466;2022-10-26T03:27:43;56634.97;;;-144.48;90.13
68758;BME280;55747;51.998;4.466;2022-10-26T03:30:09;56601.91;;;-144.48;89.78
68758;BME280;55747;51.998;4.466;2022-10-26T03:32:34;56645.31;;;-144.48;89.56
68758;BME280;55747;51.998;4.466;2022-10-26T03:35:00;56624.63;;;-144.48;89.72
68758;BME280;55747;51.998;4.466;2022-10-26T03:37:27;56618.44;;;-144.48;89.73
68758;BME280;55747;51.998;4.466;2022-10-26T03:39:52;56643.25;;;-144.48;89.80
68758;BME280;55747;51.998;4.466;2022-10-26T03:42:18;56601.91;;;-144.48;89.71
68758;BME280;55747;51.998;4.466;2022-10-26T03:44:43;56643.25;;;-144.48;90.27
68758;BME280;55747;51.998;4.466;2022-10-26T03:47:08;56624.63;;;-144.48;90.61
68758;BME280;55747;51.998;4.466;2022-10-26T03:49:34;56649.44;;;-144.48;90.92
68758;BME280;55747;51.998;4.466;2022-10-26T03:52:00;56643.25;;;-144.48;91.10
68758;BME280;55747;51.998;4.466;2022-10-26T03:54:25;56651.50;;;-144.48;90.87
68758;BME280;55747;51.998;4.466;2022-10-26T03:56:51;56628.78;;;-144.48;90.73
68758;BME280;55747;51.998;4.466;2022-10-26T03:59:17;56628.78;;;-144.48;90.74
68758;BME280;55747;51.998;4.466;2022-10-26T04:01:42;56634.97;;;-144.48;90.49
68758;BME280;55747;51.998;4.466;2022-10-26T04:04:07;56637.03;;;-144.48;90.49
68758;BME280;55747;51.998;4.466;2022-10-26T04:06:33;56626.72;;;-144.48;90.25
68758;BME280;55747;51.998;4.466;2022-10-26T04:08:58;56670.13;;;-144.48;90.48
68758;BME280;55747;51.998;4.466;2022-10-26T04:11:27;56628.78;;;-144.48;90.26
68758;BME280;55747;51.998;4.466;2022-10-26T04:13:52;56634.97;;;-144.48;90.03
68758;BME280;55747;51.998;4.466;2022-10-26T04:16:19;56618.44;;;-144.48;90.07
68758;BME280;55747;51.998;4.466;2022-10-26T04:18:45;56661.84;;;-144.48;89.91
68758;BME280;55747;51.998;4.466;2022-10-26T04:21:10;56606.03;;;-144.48;90.03
68758;BME280;55747;51.998;4.466;2022-10-26T04:23:36;56608.09;;;-144.48;90.03
68758;BME280;55747;51.998;4.466;2022-10-26T04:26:04;56634.97;;;-144.48;90.10
68758;BME280;55747;51.998;4.466;2022-10-26T04:28:29;56608.09;;;-144.48;90.14
68758;BME280;55747;51.998;4.466;2022-10-26T04:30:54;56649.44;;;-144.48;89.94
68758;BME280;55747;51.998;4.466;2022-10-26T04:33:19;56663.91;;;-144.48;89.79
68758;BME280;55747;51.998;4.466;2022-10-26T04:35:45;56591.56;;;-144.48;89.40
68758;BME280;55747;51.998;4.466;2022-10-26T04:38:12;56637.03;;;-144.48;89.41
68758;BME280;55747;51.998;4.466;2022-10-26T04:40:37;56610.16;;;-144.48;89.33
68758;BME280;55747;51.998;4.466;2022-10-26T04:43:03;56655.66;;;-144.48;88.91
68758;BME280;55747;51.998;4.466;2022-10-26T04:45:28;56670.13;;;-144.48;88.85
68758;BME280;55747;51.998;4.466;2022-10-26T04:48:06;56649.44;;;-144.48;88.53
68758;BME280;55747;51.998;4.466;2022-10-26T04:50:32;56601.91;;;-144.48;88.47
68758;BME280;55747;51.998;4.466;2022-10-26T04:52:58;56593.63;;;-144.48;88.39
68758;BME280;55747;51.998;4.466;2022-10-26T04:55:23;56649.44;;;-144.48;88.09
68758;BME280;55747;51.998;4.466;2022-10-26T04:57:48;56653.59;;;-144.48;87.85
68758;BME280;55747;51.998;4.466;2022-10-26T05:00:14;56645.31;;;-144.48;88.02
68758;BME280;55747;51.998;4.466;2022-10-26T05:02:39;56612.22;;;-144.48;88.03
68758;BME280;55747;51.998;4.466;2022-10-26T05:05:04;56643.25;;;-144.48;88.27
68758;BME280;55747;51.998;4.466;2022-10-26T05:07:30;56610.16;;;-144.48;88.29
68758;BME280;55747;51.998;4.466;2022-10-26T05:09:55;56630.84;;;-144.48;88.37
68758;BME280;55747;51.998;4.466;2022-10-26T05:12:20;56622.56;;;-144.48;88.18
68758;BME280;55747;51.998;4.466;2022-10-26T05:14:45;56628.78;;;-144.48;88.05
68758;BME280;55747;51.998;4.466;2022-10-26T05:17:11;56624.63;;;-144.48;88.01
68758;BME280;55747;51.998;4.466;2022-10-26T05:19:36;56610.16;;;-144.48;88.10
68758;BME280;55747;51.998;4.466;2022-10-26T05:22:02;56637.03;;;-144.48;88.20
68758;BME280;55747;51.998;4.466;2022-10-26T05:24:27;56614.31;;;-144.48;88.43
68758;BME280;55747;51.998;4.466;2022-10-26T05:26:52;56634.97;;;-144.48;88.47
68758;BME280;55747;51.998;4.466;2022-10-26T05:29:18;56626.72;;;-144.48;88.37
68758;BME280;55747;51.998;4.466;2022-10-26T05:31:43;56618.44;;;-144.48;88.47
68758;BME280;55747;51.998;4.466;2022-10-26T05:34:08;56637.03;;;-144.48;88.50
68758;BME280;55747;51.998;4.466;2022-10-26T05:36:34;56608.09;;;-144.48;88.52
68758;BME280;55747;51.998;4.466;2022-10-26T05:38:59;56666.00;;;-144.48;88.35
68758;BME280;55747;51.998;4.466;2022-10-26T05:41:24;56624.63;;;-144.48;88.42
68758;BME280;55747;51.998;4.466;2022-10-26T05:43:50;56657.72;;;-144.48;88.46
68758;BME280;55747;51.998;4.466;2022-10-26T05:46:15;56641.19;;;-144.48;88.26
68758;BME280;55747;51.998;4.466;2022-10-26T05:48:41;56639.13;;;-144.48;88.34
68758;BME280;55747;51.998;4.466;2022-10-26T05:51:06;56634.97;;;-144.48;88.29
68758;BME280;55747;51.998;4.466;2022-10-26T05:53:32;56637.03;;;-144.48;88.48
68758;BME280;55747;51.998;4.466;2022-10-26T05:55:58;56606.03;;;-144.48;88.56
68758;BME280;55747;51.998;4.466;2022-10-26T05:58:24;56622.56;;;-144.48;88.65
68758;BME280;55747;51.998;4.466;2022-10-26T06:01:00;56572.94;;;-144.48;88.53
68758;BME280;55747;51.998;4.466;2022-10-26T06:06:12;56649.44;;;-144.48;88.04
68758;BME280;55747;51.998;4.466;2022-10-26T06:08:38;56645.31;;;-144.48;87.93
68758;BME280;55747;51.998;4.466;2022-10-26T06:11:03;56655.66;;;-144.48;88.07
68758;BME280;55747;51.998;4.466;2022-10-26T06:13:31;56610.16;;;-144.48;88.30
68758;BME280;55747;51.998;4.466;2022-10-26T06:18:42;56663.91;;;-144.48;89.23
68758;BME280;55747;51.998;4.466;2022-10-26T06:24:03;56614.31;;;-144.48;89.48
68758;BME280;55747;51.998;4.466;2022-10-26T06:29:44;56651.50;;;-144.48;89.68
68758;BME280;55747;51.998;4.466;2022-10-26T06:32:15;56616.38;;;-144.48;89.84
68758;BME280;55747;51.998;4.466;2022-10-26T06:34:47;56618.44;;;-144.48;89.91
68758;BME280;55747;51.998;4.466;2022-10-26T06:37:14;56628.78;;;-144.48;89.82
68758;BME280;55747;51.998;4.466;2022-10-26T06:39:43;56616.38;;;-144.48;89.83
68758;BME280;55747;51.998;4.466;2022-10-26T06:42:10;56674.25;;;-144.48;89.52
68758;BME280;55747;51.998;4.466;2022-10-26T06:44:36;56632.91;;;-144.48;89.32
68758;BME280;55747;51.998;4.466;2022-10-26T06:48:06;56651.50;;;-144.48;89.12
68758;BME280;55747;51.998;4.466;2022-10-26T06:50:30;56637.03;;;-144.48;88.65
68758;BME280;55747;51.998;4.466;2022-10-26T06:55:36;56624.63;;;-144.48;88.46
68758;BME280;55747;51.998;4.466;2022-10-26T06:58:04;56655.66;;;-144.48;88.41
68758;BME280;55747;51.998;4.466;2022-10-26T07:00:32;56645.31;;;-144.48;88.48
68758;BME280;55747;51.998;4.466;2022-10-26T07:02:58;56628.78;;;-144.48;88.31
68758;BME280;55747;51.998;4.466;2022-10-26T07:05:24;56649.44;;;-144.48;87.94
68758;BME280;55747;51.998;4.466;2022-10-26T07:07:49;56653.59;;;-144.48;87.68
68758;BME280;55747;51.998;4.466;2022-10-26T07:10:14;56632.91;;;-144.48;87.21
68758;BME280;55747;51.998;4.466;2022-10-26T07:12:40;56595.69;;;-144.48;87.34
68758;BME280;55747;51.998;4.466;2022-10-26T07:15:06;56599.81;;;-144.48;86.54
68758;BME280;55747;51.998;4.466;2022-10-26T07:17:41;56641.19;;;-144.48;86.12
68758;BME280;55747;51.998;4.466;2022-10-26T07:20:07;56624.63;;;-144.48;85.55
68758;BME280;55747;51.998;4.466;2022-10-26T07:22:33;56645.31;;;-144.48;85.12
68758;BME280;55747;51.998;4.466;2022-10-26T07:24:58;56647.38;;;-144.48;84.57
68758;BME280;55747;51.998;4.466;2022-10-26T07:27:23;56622.56;;;-144.48;83.83
68758;BME280;55747;51.998;4.466;2022-10-26T07:29:49;56626.72;;;-144.48;83.97
68758;BME280;55747;51.998;4.466;2022-10-26T07:32:14;56628.78;;;-144.48;83.76
68758;BME280;55747;51.998;4.466;2022-10-26T07:34:39;56641.19;;;-144.48;83.54
68758;BME280;55747;51.998;4.466;2022-10-26T07:37:04;56612.22;;;-144.48;83.11
68758;BME280;55747;51.998;4.466;2022-10-26T07:39:30;56628.78;;;-144.48;82.95
68758;BME280;55747;51.998;4.466;2022-10-26T07:41:57;56622.56;;;-144.48;82.60
68758;BME280;55747;51.998;4.466;2022-10-26T07:44:22;56651.50;;;-144.48;82.19
68758;BME280;55747;51.998;4.466;2022-10-26T07:46:47;56659.78;;;-144.48;81.49
68758;BME280;55747;51.998;4.466;2022-10-26T07:49:13;56624.63;;;-144.48;80.95
68758;BME280;55747;51.998;4.466;2022-10-26T07:51:38;56630.84;;;-144.48;80.28
68758;BME280;55747;51.998;4.466;2022-10-26T07:54:03;56624.63;;;-144.48;79.47
68758;BME280;55747;51.998;4.466;2022-10-26T07:56:28;56610.16;;;-144.48;78.84
68758;BME280;55747;51.998;4.466;2022-10-26T07:58:54;56616.38;;;-144.48;77.96
68758;BME280;55747;51.998;4.466;2022-10-26T08:01:21;56630.84;;;-144.48;77.42
68758;BME280;55747;51.998;4.466;2022-10-26T08:03:50;56579.16;;;-144.48;76.66
68758;BME280;55747;51.998;4.466;2022-10-26T08:06:15;56639.13;;;-144.48;77.08
68758;BME280;55747;51.998;4.466;2022-10-26T08:08:41;56612.22;;;-144.48;76.54
68758;BME280;55747;51.998;4.466;2022-10-26T08:11:07;56630.84;;;-144.48;75.95
68758;BME280;55747;51.998;4.466;2022-10-26T08:13:33;56603.97;;;-144.48;76.33
68758;BME280;55747;51.998;4.466;2022-10-26T08:16:01;56620.50;;;-144.48;76.73
68758;BME280;55747;51.998;4.466;2022-10-26T08:18:28;56632.91;;;-144.48;76.25
68758;BME280;55747;51.998;4.466;2022-10-26T08:20:54;56616.38;;;-144.48;76.27
68758;BME280;55747;51.998;4.466;2022-10-26T08:23:20;56603.97;;;-144.48;76.25
68758;BME280;55747;51.998;4.466;2022-10-26T08:25:46;56599.81;;;-144.48;76.22
68758;BME280;55747;51.998;4.466;2022-10-26T08:28:12;56628.78;;;-144.48;75.89
68758;BME280;55747;51.998;4.466;2022-10-26T08:30:38;56599.81;;;-144.48;75.71
68758;BME280;55747;51.998;4.466;2022-10-26T08:33:05;56595.69;;;-144.48;75.50
68758;BME280;55747;51.998;4.466;2022-10-26T08:35:31;56614.31;;;-144.48;75.40
68758;BME280;55747;51.998;4.466;2022-10-26T08:37:57;56585.34;;;-144.48;75.58
68758;BME280;55747;51.998;4.466;2022-10-26T08:40:46;56599.81;;;-144.48;75.17
68758;BME280;55747;51.998;4.466;2022-10-26T08:45:46;56589.50;;;-144.48;73.15
68758;BME280;55747;51.998;4.466;2022-10-26T08:48:15;56606.03;;;-144.48;71.77
68758;BME280;55747;51.998;4.466;2022-10-26T08:50:53;56556.41;;;-144.48;68.38
68758;BME280;55747;51.998;4.466;2022-10-26T08:55:55;56591.56;;;-144.48;68.79
68758;BME280;55747;51.998;4.466;2022-10-26T08:58:27;56612.22;;;-144.48;69.42
68758;BME280;55747;51.998;4.466;2022-10-26T09:00:54;56591.56;;;-144.48;69.05
68758;BME280;55747;51.998;4.466;2022-10-26T09:03:20;56562.63;;;-144.48;69.34
68758;BME280;55747;51.998;4.466;2022-10-26T09:09:13;56579.16;;;-144.48;64.54
68758;BME280;55747;51.998;4.466;2022-10-26T09:14:38;56570.88;;;-144.48;62.82
68758;BME280;55747;51.998;4.466;2022-10-26T09:20:02;56552.28;;;-144.48;65.63
68758;BME280;55747;51.998;4.466;2022-10-26T09:22:41;56510.94;;;-144.48;65.68
68758;BME280;55747;51.998;4.466;2022-10-26T09:25:20;56537.81;;;-144.48;64.81
68758;BME280;55747;51.998;4.466;2022-10-26T09:27:49;56581.22;;;-144.48;63.98
68758;BME280;55747;51.998;4.466;2022-10-26T09:30:19;56533.66;;;-144.48;62.48
68758;BME280;55747;51.998;4.466;2022-10-26T09:32:47;56552.28;;;-144.48;60.02
68758;BME280;55747;51.998;4.466;2022-10-26T09:35:22;56504.72;;;-144.48;58.88
68758;BME280;55747;51.998;4.466;2022-10-26T09:37:55;56510.94;;;-144.48;59.57
68758;BME280;55747;51.998;4.466;2022-10-26T09:43:12;56527.47;;;-144.48;59.67
68758;BME280;55747;51.998;4.466;2022-10-26T09:45:45;56535.75;;;-144.48;61.50
68758;BME280;55747;51.998;4.466;2022-10-26T09:50:56;56556.41;;;-144.48;67.58
68758;BME280;55747;51.998;4.466;2022-10-26T09:53:24;56519.19;;;-144.48;66.13
68758;BME280;55747;51.998;4.466;2022-10-26T09:55:58;56527.47;;;-144.48;65.33
68758;BME280;55747;51.998;4.466;2022-10-26T09:58:35;56556.41;;;-144.48;66.91
68758;BME280;55747;51.998;4.466;2022-10-26T10:01:04;56548.13;;;-144.48;66.46
68758;BME280;55747;51.998;4.466;2022-10-26T10:03:32;56548.13;;;-144.48;68.14
68758;BME280;55747;51.998;4.466;2022-10-26T10:06:18;56564.69;;;-144.48;69.79
68758;BME280;55747;51.998;4.466;2022-10-26T10:09:09;56566.75;;;-144.48;71.14
68758;BME280;55747;51.998;4.466;2022-10-26T10:11:39;56562.63;;;-144.48;72.22
68758;BME280;55747;51.998;4.466;2022-10-26T10:14:12;56568.81;;;-144.48;73.27
68758;BME280;55747;51.998;4.466;2022-10-26T10:16:39;56579.16;;;-144.48;74.29
68758;BME280;55747;51.998;4.466;2022-10-26T10:19:32;56546.06;;;-144.48;74.73
68758;BME280;55747;51.998;4.466;2022-10-26T10:22:00;56560.53;;;-144.48;74.64
68758;BME280;55747;51.998;4.466;2022-10-26T10:29:33;56570.88;;;-144.48;75.48
68758;BME280;55747;51.998;4.466;2022-10-26T10:32:20;56570.88;;;-144.48;73.87
68758;BME280;55747;51.998;4.466;2022-10-26T10:34:47;56533.66;;;-144.48;73.00
68758;BME280;55747;51.998;4.466;2022-10-26T10:42:36;56548.13;;;-144.48;70.81
68758;BME280;55747;51.998;4.466;2022-10-26T10:45:04;56546.06;;;-144.48;68.58
68758;BME280;55747;51.998;4.466;2022-10-26T10:47:40;56519.19;;;-144.48;66.18
68758;BME280;55747;51.998;4.466;2022-10-26T10:50:27;56593.63;;;-144.48;64.67
68758;BME280;55747;51.998;4.466;2022-10-26T10:53:20;56525.41;;;-144.48;62.56
68758;BME280;55747;51.998;4.466;2022-10-26T10:58:49;56525.41;;;-144.48;62.19
68758;BME280;55747;51.998;4.466;2022-10-26T11:01:28;56490.25;;;-144.48;59.83
68758;BME280;55747;51.998;4.466;2022-10-26T11:06:27;56510.94;;;-144.48;59.70
68758;BME280;55747;51.998;4.466;2022-10-26T11:08:58;56510.94;;;-144.48;60.27
68758;BME280;55747;51.998;4.466;2022-10-26T11:11:47;56552.28;;;-144.48;64.89
68758;BME280;55747;51.998;4.466;2022-10-26T11:14:33;56519.19;;;-144.48;63.25
68758;BME280;55747;51.998;4.466;2022-10-26T11:20:03;56535.75;;;-144.48;65.85
68758;BME280;55747;51.998;4.466;2022-10-26T11:22:52;56523.34;;;-144.48;65.87
68758;BME280;55747;51.998;4.466;2022-10-26T11:25:40;56554.34;;;-144.48;65.16
68758;BME280;55747;51.998;4.466;2022-10-26T11:28:38;56539.88;;;-144.48;63.67
68758;BME280;55747;51.998;4.466;2022-10-26T11:31:33;56544.00;;;-144.48;62.22
68758;BME280;55747;51.998;4.466;2022-10-26T11:37:28;56504.72;;;-144.48;60.50
68758;BME280;55747;51.998;4.466;2022-10-26T11:40:03;56527.47;;;-144.48;60.28
68758;BME280;55747;51.998;4.466;2022-10-26T11:48:39;56537.81;;;-144.48;63.40
68758;BME280;55747;51.998;4.466;2022-10-26T11:51:58;56508.84;;;-144.48;61.57
68758;BME280;55747;51.998;4.466;2022-10-26T11:54:59;56544.00;;;-144.48;63.64
68758;BME280;55747;51.998;4.466;2022-10-26T11:57:34;56525.41;;;-144.48;63.91
68758;BME280;55747;51.998;4.466;2022-10-26T12:03:19;56457.19;;;-144.48;59.52
68758;BME280;55747;51.998;4.466;2022-10-26T12:05:51;56475.78;;;-144.48;57.86
68758;BME280;55747;51.998;4.466;2022-10-26T12:14:23;56506.78;;;-144.48;57.12
68758;BME280;55747;51.998;4.466;2022-10-26T12:17:12;56502.66;;;-144.48;57.51
68758;BME280;55747;51.998;4.466;2022-10-26T12:20:17;56500.59;;;-144.48;55.98
68758;BME280;55747;51.998;4.466;2022-10-26T12:25:50;56494.38;;;-144.48;55.41
68758;BME280;55747;51.998;4.466;2022-10-26T12:34:09;56498.53;;;-144.48;59.36
68758;BME280;55747;51.998;4.466;2022-10-26T12:39:31;56471.66;;;-144.48;58.17
68758;BME280;55747;51.998;4.466;2022-10-26T12:42:26;56481.97;;;-144.48;55.62
68758;BME280;55747;51.998;4.466;2022-10-26T12:58:29;56502.66;;;-144.48;55.99
68758;BME280;55747;51.998;4.466;2022-10-26T13:10:27;56444.78;;;-144.48;52.21
68758;BME280;55747;51.998;4.466;2022-10-26T13:12:55;56455.09;;;-144.48;52.84
68758;BME280;55747;51.998;4.466;2022-10-26T13:15:23;56461.31;;;-144.48;54.18
68758;BME280;55747;51.998;4.466;2022-10-26T13:18:13;56434.44;;;-144.48;52.66
68758;BME280;55747;51.998;4.466;2022-10-26T13:24:18;56498.53;;;-144.48;55.91
68758;BME280;55747;51.998;4.466;2022-10-26T13:29:29;56448.91;;;-144.48;53.60
68758;BME280;55747;51.998;4.466;2022-10-26T13:31:58;56463.38;;;-144.48;53.76
68758;BME280;55747;51.998;4.466;2022-10-26T13:34:30;56492.31;;;-144.48;54.42
68758;BME280;55747;51.998;4.466;2022-10-26T13:37:11;56448.91;;;-144.48;55.16
68758;BME280;55747;51.998;4.466;2022-10-26T13:39:41;56471.66;;;-144.48;54.38
68758;BME280;55747;51.998;4.466;2022-10-26T13:42:31;56490.25;;;-144.48;55.36
68758;BME280;55747;51.998;4.466;2022-10-26T13:45:29;56453.03;;;-144.48;55.79
68758;BME280;55747;51.998;4.466;2022-10-26T13:51:25;56467.50;;;-144.48;55.19
68758;BME280;55747;51.998;4.466;2022-10-26T13:54:15;56475.78;;;-144.48;54.13
68758;BME280;55747;51.998;4.466;2022-10-26T13:56:53;56467.50;;;-144.48;54.93
68758;BME280;55747;51.998;4.466;2022-10-26T13:59:24;56469.56;;;-144.48;55.55
68758;BME280;55747;51.998;4.466;2022-10-26T14:02:14;56486.13;;;-144.48;57.25
68758;BME280;55747;51.998;4.466;2022-10-26T14:04:44;56481.97;;;-144.48;58.05
68758;BME280;55747;51.998;4.466;2022-10-26T14:07:16;56475.78;;;-144.48;58.71
68758;BME280;55747;51.998;4.466;2022-10-26T14:09:52;56469.56;;;-144.48;60.33
68758;BME280;55747;51.998;4.466;2022-10-26T14:12:17;56496.44;;;-144.48;61.79
68758;BME280;55747;51.998;4.466;2022-10-26T14:14:43;56502.66;;;-144.48;63.07
68758;BME280;55747;51.998;4.466;2022-10-26T14:17:18;56484.06;;;-144.48;62.94
68758;BME280;55747;51.998;4.466;2022-10-26T14:19:44;56502.66;;;-144.48;63.68
68758;BME280;55747;51.998;4.466;2022-10-26T14:22:21;56475.78;;;-144.48;64.20
68758;BME280;55747;51.998;4.466;2022-10-26T14:24:56;56510.94;;;-144.48;63.93
68758;BME280;55747;51.998;4.466;2022-10-26T14:27:25;56504.72;;;-144.48;62.98
68758;BME280;55747;51.998;4.466;2022-10-26T14:29:52;56467.50;;;-144.48;63.22
68758;BME280;55747;51.998;4.466;2022-10-26T14:34:47;56510.94;;;-144.48;64.14
68758;BME280;55747;51.998;4.466;2022-10-26T14:39:51;56519.19;;;-144.48;65.03
68758;BME280;55747;51.998;4.466;2022-10-26T14:42:39;56502.66;;;-144.48;64.95
68758;BME280;55747;51.998;4.466;2022-10-26T14:45:21;56488.19;;;-144.48;65.06
68758;BME280;55747;51.998;4.466;2022-10-26T14:47:48;56525.41;;;-144.48;65.09
68758;BME280;55747;51.998;4.466;2022-10-26T14:50:19;56492.31;;;-144.48;64.95
68758;BME280;55747;51.998;4.466;2022-10-26T14:52:50;56515.06;;;-144.48;64.70
68758;BME280;55747;51.998;4.466;2022-10-26T14:55:17;56473.72;;;-144.48;64.82
68758;BME280;55747;51.998;4.466;2022-10-26T14:57:44;56500.59;;;-144.48;64.75
68758;BME280;55747;51.998;4.466;2022-10-26T15:00:24;56457.19;;;-144.48;64.83
68758;BME280;55747;51.998;4.466;2022-10-26T15:02:56;56488.19;;;-144.48;64.61
68758;BME280;55747;51.998;4.466;2022-10-26T15:05:26;56506.78;;;-144.48;65.32
68758;BME280;55747;51.998;4.466;2022-10-26T15:07:59;56496.44;;;-144.48;65.09
68758;BME280;55747;51.998;4.466;2022-10-26T15:13:29;56492.31;;;-144.48;64.72
68758;BME280;55747;51.998;4.466;2022-10-26T15:16:26;56508.84;;;-144.48;64.34
68758;BME280;55747;51.998;4.466;2022-10-26T15:18:57;56527.47;;;-144.48;65.09
68758;BME280;55747;51.998;4.466;2022-10-26T15:23:52;56502.66;;;-144.48;65.61
68758;BME280;55747;51.998;4.466;2022-10-26T15:26:18;56513.00;;;-144.48;65.37
68758;BME280;55747;51.998;4.466;2022-10-26T15:28:45;56459.25;;;-144.48;65.91